Time;durP1;ratioP1;P1;durP2;ratioP2;P2;SDS_P1;SDS_P2;PMS_P1;PMS_P2;Temp;Humidity;BMP_temperature;BMP_pressure;BME280_temperature;BME280_humidity;BME280_pressure;Samples;Min_cycle;Max_cycle;Signal;HPM_P1;HPM_P2
2022/03/07 00:01:34;;;;;;;3.88;3.15;;;15.70;73.20;;;;;;4230603;28;20287;-71
2022/03/07 00:03:36;;;;;;;3.27;2.97;;;15.70;73.20;;;;;;4230831;28;20263;-71
2022/03/07 00:05:39;;;;;;;4.78;3.38;;;15.70;73.20;;;;;;4230640;28;20283;-71
2022/03/07 00:07:41;;;;;;;3.83;3.03;;;15.70;73.30;;;;;;4230946;28;20283;-71
2022/03/07 00:09:43;;;;;;;3.63;3.03;;;15.70;74.00;;;;;;4230938;28;20218;-72
2022/03/07 00:11:47;;;;;;;4.68;3.38;;;15.70;73.20;;;;;;4230744;28;20221;-71
2022/03/07 00:13:49;;;;;;;4.70;3.60;;;15.70;73.20;;;;;;4213790;28;20256;-72
2022/03/07 00:15:52;;;;;;;4.85;3.00;;;15.70;73.20;;;;;;4224531;28;20271;-72
2022/03/07 00:17:54;;;;;;;3.97;3.08;;;15.70;73.20;;;;;;4230871;28;20626;-71
2022/03/07 00:19:57;;;;;;;3.73;3.27;;;15.70;73.30;;;;;;4230828;28;20230;-71
2022/03/07 00:21:59;;;;;;;3.53;3.20;;;15.70;74.10;;;;;;4230819;28;20229;-71
2022/03/07 00:24:02;;;;;;;3.53;3.20;;;15.70;73.30;;;;;;4230805;28;20271;-71
2022/03/07 00:26:05;;;;;;;3.87;3.27;;;15.70;73.40;;;;;;4230373;28;20271;-71
2022/03/07 00:28:08;;;;;;;3.20;2.90;;;15.70;73.40;;;;;;4230152;28;20217;-71
2022/03/07 00:30:11;;;;;;;4.20;3.50;;;15.70;73.30;;;;;;4222707;28;20662;-72
2022/03/07 00:32:14;;;;;;;3.90;3.43;;;15.70;73.20;;;;;;4230211;28;20222;-71
2022/03/07 00:34:16;;;;;;;3.72;3.35;;;15.70;73.20;;;;;;4230624;28;20275;-71
2022/03/07 00:36:20;;;;;;;3.93;3.10;;;15.70;73.40;;;;;;4230739;28;20623;-72
2022/03/07 00:38:23;;;;;;;3.33;2.85;;;15.60;74.10;;;;;;4230696;28;20290;-71
2022/03/07 00:40:25;;;;;;;3.90;3.00;;;15.70;73.60;;;;;;4230505;28;20214;-71
2022/03/07 00:42:28;;;;;;;3.20;2.90;;;15.60;73.30;;;;;;4230212;28;20221;-74
2022/03/07 00:44:31;;;;;;;3.83;3.33;;;15.60;73.30;;;;;;4220643;28;20218;-74
2022/03/07 00:46:34;;;;;;;4.03;3.30;;;15.60;73.30;;;;;;4225312;28;20646;-75
2022/03/07 00:48:36;;;;;;;3.33;2.93;;;15.60;73.30;;;;;;4230425;28;20218;-74
2022/03/07 00:50:42;;;;;;;3.73;3.20;;;15.60;73.30;;;;;;4230310;28;20620;-74
2022/03/07 00:52:44;;;;;;;3.63;2.77;;;15.60;73.30;;;;;;4230304;28;20634;-74
2022/03/07 00:54:47;;;;;;;3.70;3.27;;;15.60;73.30;;;;;;4230142;28;20625;-74
2022/03/07 00:56:49;;;;;;;4.30;3.07;;;15.60;73.30;;;;;;4230199;28;20251;-74
2022/03/07 00:58:51;;;;;;;3.63;3.17;;;15.60;73.30;;;;;;4221302;28;20218;-74
2022/03/07 01:00:55;;;;;;;3.30;3.00;;;15.60;73.40;;;;;;4229569;28;20221;-74
2022/03/07 01:02:58;;;;;;;3.87;3.30;;;15.60;73.30;;;;;;4230275;28;20286;-74
2022/03/07 01:05:00;;;;;;;3.80;3.33;;;15.60;73.40;;;;;;4230181;28;20334;-74
2022/03/07 01:07:04;;;;;;;3.33;2.90;;;15.50;73.30;;;;;;4229936;28;20271;-74
2022/03/07 01:09:06;;;;;;;3.83;3.13;;;15.60;73.20;;;;;;4230023;28;20286;-74
2022/03/07 01:11:08;;;;;;;4.17;3.10;;;15.50;73.20;;;;;;4229935;28;20225;-74
2022/03/07 01:13:11;;;;;;;4.27;3.20;;;15.60;73.30;;;;;;4224504;28;20213;-74
2022/03/07 01:15:14;;;;;;;3.80;2.90;;;15.60;73.30;;;;;;4229102;28;20252;-74
2022/03/07 01:17:17;;;;;;;4.17;3.00;;;15.50;73.30;;;;;;4228947;28;20238;-74
2022/03/07 01:19:20;;;;;;;3.37;3.07;;;15.50;73.20;;;;;;4229953;28;20217;-74
2022/03/07 01:21:22;;;;;;;3.40;2.90;;;15.50;73.20;;;;;;4229905;28;20658;-74
2022/03/07 01:23:24;;;;;;;3.23;2.63;;;15.50;73.20;;;;;;4229927;28;20271;-74
2022/03/07 01:25:27;;;;;;;2.93;2.63;;;15.50;73.20;;;;;;4229286;28;20293;-74
2022/03/07 01:27:29;;;;;;;3.27;2.80;;;15.50;73.20;;;;;;4228641;28;20237;-74
2022/03/07 01:29:32;;;;;;;3.90;3.00;;;15.50;73.30;;;;;;4229802;28;20214;-74
2022/03/07 01:31:34;;;;;;;5.40;3.00;;;15.50;73.20;;;;;;4217720;28;20289;-74
2022/03/07 01:33:38;;;;;;;3.23;2.63;;;15.50;73.30;;;;;;4228045;28;20263;-74
2022/03/07 01:35:40;;;;;;;3.65;3.10;;;15.50;73.20;;;;;;4229905;28;20278;-74
2022/03/07 01:37:42;;;;;;;4.60;3.10;;;15.50;73.20;;;;;;4229840;28;20217;-74
2022/03/07 01:39:45;;;;;;;3.00;2.67;;;15.50;73.30;;;;;;4229833;28;20218;-74
2022/03/07 01:41:47;;;;;;;3.40;2.73;;;15.50;73.20;;;;;;4229705;28;20629;-74
2022/03/07 01:43:50;;;;;;;3.30;3.00;;;15.50;73.30;;;;;;4229351;28;20263;-74
2022/03/07 01:45:52;;;;;;;3.70;3.00;;;15.50;73.20;;;;;;4229671;28;20278;-74
2022/03/07 01:47:55;;;;;;;3.87;2.90;;;15.50;73.30;;;;;;4229408;28;20238;-74
2022/03/07 01:49:58;;;;;;;3.97;3.13;;;15.40;73.10;;;;;;4229412;28;20747;-74
2022/03/07 01:52:01;;;;;;;3.53;3.00;;;15.40;73.20;;;;;;4229151;28;20267;-74
2022/03/07 01:54:04;;;;;;;3.00;2.37;;;15.50;73.30;;;;;;4229970;28;20221;-74
2022/03/07 01:56:08;;;;;;;3.20;2.90;;;15.50;73.30;;;;;;4229574;28;20251;-76
2022/03/07 01:58:10;;;;;;;3.20;2.90;;;15.50;73.10;;;;;;4229476;28;20214;-76
2022/03/07 02:00:16;;;;;;;4.00;2.90;;;15.50;73.20;;;;;;4229423;28;20290;-76
2022/03/07 02:02:18;;;;;;;3.13;2.70;;;15.40;73.10;;;;;;4229207;28;20275;-76
2022/03/07 02:04:21;;;;;;;3.50;2.67;;;15.40;73.10;;;;;;4229256;28;20247;-76
2022/03/07 02:06:26;;;;;;;2.90;2.60;;;15.40;73.20;;;;;;4229206;28;20221;-75
2022/03/07 02:08:29;;;;;;;3.83;3.10;;;15.50;73.30;;;;;;4229251;28;20302;-75
2022/03/07 02:10:32;;;;;;;2.90;2.40;;;15.40;73.10;;;;;;4229162;28;20217;-75
2022/03/07 02:12:34;;;;;;;3.10;2.77;;;15.40;73.10;;;;;;4224927;28;20325;-75
2022/03/07 02:14:37;;;;;;;3.30;2.50;;;15.40;73.20;;;;;;4228237;28;20662;-75
2022/03/07 02:16:39;;;;;;;3.10;2.80;;;15.40;73.20;;;;;;4213586;28;20367;-75
2022/03/07 02:18:42;;;;;;;3.60;3.07;;;15.40;73.10;;;;;;4229043;28;20243;-75
2022/03/07 02:20:44;;;;;;;3.20;2.67;;;15.40;73.10;;;;;;4229215;28;20688;-75
2022/03/07 02:22:48;;;;;;;3.57;2.97;;;15.40;73.10;;;;;;4229180;28;20221;-75
2022/03/07 02:24:50;;;;;;;3.13;2.70;;;15.40;73.20;;;;;;4229477;28;20618;-75
2022/03/07 02:26:57;;;;;;;3.13;2.77;;;15.40;73.20;;;;;;4229063;28;20267;-75
2022/03/07 02:28:59;;;;;;;3.57;2.67;;;15.40;73.20;;;;;;4228972;28;20237;-75
2022/03/07 02:31:01;;;;;;;3.70;2.67;;;15.40;73.10;;;;;;4229115;28;20214;-75
2022/03/07 02:33:04;;;;;;;4.37;3.07;;;15.40;73.10;;;;;;4228294;28;20255;-75
2022/03/07 02:35:07;;;;;;;4.27;2.90;;;15.30;73.00;;;;;;4212675;28;20223;-75
2022/03/07 02:37:09;;;;;;;4.00;2.93;;;15.30;73.00;;;;;;4220519;28;20247;-75
2022/03/07 02:39:13;;;;;;;3.23;2.93;;;15.30;73.00;;;;;;4231449;28;20991;-75
2022/03/07 02:41:16;;;;;;;2.70;2.47;;;15.40;73.20;;;;;;4232677;28;20221;-75
2022/03/07 02:43:18;;;;;;;3.67;2.67;;;15.30;73.00;;;;;;4231676;28;20218;-75
2022/03/07 02:45:21;;;;;;;2.83;2.60;;;15.30;73.10;;;;;;4226731;28;20629;-75
2022/03/07 02:47:26;;;;;;;3.17;2.87;;;15.30;73.10;;;;;;4227471;28;20214;-75
2022/03/07 02:49:28;;;;;;;3.60;2.87;;;15.30;73.00;;;;;;4231912;28;20670;-75
2022/03/07 02:51:31;;;;;;;3.10;2.73;;;15.30;73.10;;;;;;4232311;28;20663;-75
2022/03/07 02:53:34;;;;;;;4.27;3.00;;;15.30;73.10;;;;;;4232249;28;20225;-75
2022/03/07 02:55:37;;;;;;;3.27;2.87;;;15.30;73.00;;;;;;4232064;28;20210;-75
2022/03/07 02:57:40;;;;;;;3.33;2.50;;;15.30;73.10;;;;;;4231872;28;20217;-75
2022/03/07 02:59:42;;;;;;;3.20;2.67;;;15.30;73.00;;;;;;4217405;28;20226;-75
2022/03/07 03:01:45;;;;;;;3.90;2.60;;;15.30;73.00;;;;;;4232169;28;20217;-75
2022/03/07 03:03:48;;;;;;;2.77;2.40;;;15.30;73.00;;;;;;4231937;28;20718;-75
2022/03/07 03:05:54;;;;;;;3.73;2.63;;;15.30;73.00;;;;;;4231903;28;20218;-75
2022/03/07 03:07:57;;;;;;;3.57;2.87;;;15.30;72.90;;;;;;4215734;28;20241;-75
2022/03/07 03:10:00;;;;;;;3.50;2.80;;;15.30;73.00;;;;;;4216336;28;20218;-75
2022/03/07 03:12:05;;;;;;;3.30;2.67;;;15.30;73.00;;;;;;4231996;28;20243;-75
2022/03/07 03:14:07;;;;;;;3.40;2.90;;;15.30;73.10;;;;;;4231317;28;20240;-75
2022/03/07 03:16:10;;;;;;;4.00;3.17;;;15.30;73.00;;;;;;4218422;28;20291;-75
2022/03/07 03:18:12;;;;;;;4.00;2.63;;;15.30;73.00;;;;;;4215705;28;20206;-76
2022/03/07 03:20:16;;;;;;;3.23;2.60;;;15.30;73.00;;;;;;4214902;28;20296;-75
2022/03/07 03:22:19;;;;;;;2.87;2.47;;;15.30;73.00;;;;;;4214963;28;20223;-75
2022/03/07 03:24:21;;;;;;;3.37;2.50;;;15.30;73.00;;;;;;4215111;28;20219;-75
2022/03/07 03:26:24;;;;;;;2.90;2.60;;;15.30;73.00;;;;;;4215162;28;20260;-75
2022/03/07 03:28:27;;;;;;;3.10;2.60;;;15.30;73.00;;;;;;4217626;28;20245;-75
2022/03/07 03:30:30;;;;;;;2.80;2.30;;;15.20;72.90;;;;;;4230913;28;20230;-75
2022/03/07 03:32:32;;;;;;;3.73;2.70;;;15.30;73.00;;;;;;4231382;28;20270;-75
2022/03/07 03:34:34;;;;;;;2.90;2.60;;;15.20;72.90;;;;;;4231335;28;20251;-75
2022/03/07 03:36:37;;;;;;;3.67;2.70;;;15.20;72.90;;;;;;4231367;28;20221;-75
2022/03/07 03:38:39;;;;;;;3.40;2.50;;;15.20;73.00;;;;;;4231247;28;20218;-75
2022/03/07 03:40:42;;;;;;;3.37;2.70;;;15.20;73.70;;;;;;4231686;28;20218;-75
2022/03/07 03:42:44;;;;;;;3.10;2.60;;;15.20;72.90;;;;;;4231165;28;20271;-75
2022/03/07 03:44:48;;;;;;;3.13;2.57;;;15.20;72.90;;;;;;4231324;28;20226;-75
2022/03/07 03:46:50;;;;;;;3.03;2.37;;;15.20;72.90;;;;;;4231151;28;20646;-75
2022/03/07 03:48:52;;;;;;;3.17;2.57;;;15.20;73.00;;;;;;4231366;28;20233;-75
2022/03/07 03:50:55;;;;;;;2.70;2.40;;;15.20;72.90;;;;;;4230555;28;20213;-75
2022/03/07 03:52:57;;;;;;;3.43;2.60;;;15.20;73.00;;;;;;4230951;28;20214;-75
2022/03/07 03:55:01;;;;;;;4.07;2.87;;;15.20;72.90;;;;;;4231218;28;20222;-75
2022/03/07 03:57:04;;;;;;;2.67;2.27;;;15.20;72.80;;;;;;4230884;28;20259;-75
2022/03/07 03:59:06;;;;;;;2.97;2.63;;;15.20;72.70;;;;;;4230859;28;20719;-75
2022/03/07 04:01:10;;;;;;;4.23;2.87;;;15.20;72.80;;;;;;4231224;28;20263;-75
2022/03/07 04:03:12;;;;;;;2.40;2.20;;;15.20;72.90;;;;;;4230947;28;21043;-75
2022/03/07 04:05:17;;;;;;;3.07;2.53;;;15.20;72.70;;;;;;4231144;28;20217;-75
2022/03/07 04:07:19;;;;;;;3.23;2.40;;;15.20;72.70;;;;;;4231012;28;20219;-75
2022/03/07 04:09:22;;;;;;;3.10;2.50;;;15.20;72.80;;;;;;4230581;28;20339;-75
2022/03/07 04:11:25;;;;;;;3.67;2.60;;;15.10;72.80;;;;;;4230713;28;20270;-75
2022/03/07 04:13:27;;;;;;;3.67;2.73;;;15.20;72.80;;;;;;4230469;28;20270;-75
2022/03/07 04:15:29;;;;;;;3.87;2.60;;;15.20;72.90;;;;;;4223006;28;21212;-72
2022/03/07 04:17:34;;;;;;;2.53;2.33;;;15.10;72.70;;;;;;4230767;28;20241;-72
2022/03/07 04:19:36;;;;;;;3.23;2.60;;;15.20;72.80;;;;;;4230850;28;20218;-73
2022/03/07 04:21:39;;;;;;;3.13;2.20;;;15.10;72.80;;;;;;4220360;28;20260;-73
2022/03/07 04:23:42;;;;;;;2.97;2.67;;;15.10;72.80;;;;;;4229662;28;20628;-73
2022/03/07 04:25:44;;;;;;;3.93;2.97;;;15.10;72.70;;;;;;4226279;28;20642;-72
2022/03/07 04:27:46;;;;;;;3.27;2.40;;;15.20;72.80;;;;;;4230637;28;20221;-72
2022/03/07 04:29:49;;;;;;;4.57;2.87;;;15.10;72.70;;;;;;4230582;28;20241;-72
2022/03/07 04:31:51;;;;;;;2.93;2.23;;;15.10;72.80;;;;;;4230588;28;20279;-72
2022/03/07 04:33:55;;;;;;;3.50;2.77;;;15.10;72.70;;;;;;4230269;28;20271;-72
2022/03/07 04:35:57;;;;;;;2.90;2.60;;;15.10;72.70;;;;;;4230167;28;20283;-72
2022/03/07 04:38:00;;;;;;;3.13;2.70;;;15.10;72.50;;;;;;4230250;28;20217;-71
2022/03/07 04:40:05;;;;;;;4.23;2.60;;;15.10;72.80;;;;;;4213658;28;20259;-72
2022/03/07 04:42:08;;;;;;;3.20;2.40;;;15.10;72.50;;;;;;4213939;28;20622;-72
2022/03/07 04:44:13;;;;;;;2.37;2.03;;;15.10;72.70;;;;;;4222700;28;20729;-72
2022/03/07 04:46:16;;;;;;;2.80;2.50;;;15.10;72.60;;;;;;4230641;28;20270;-72
2022/03/07 04:48:18;;;;;;;2.73;2.40;;;15.10;72.60;;;;;;4226343;28;20223;-72
2022/03/07 04:50:22;;;;;;;3.67;2.57;;;15.10;72.50;;;;;;4222666;28;20246;-72
2022/03/07 04:52:24;;;;;;;2.70;2.50;;;15.10;72.70;;;;;;4230080;28;20210;-71
2022/03/07 04:54:26;;;;;;;3.23;2.30;;;15.10;72.50;;;;;;4229737;28;20263;-72
2022/03/07 04:56:29;;;;;;;3.77;2.53;;;15.10;72.70;;;;;;4230386;28;20218;-72
2022/03/07 04:58:31;;;;;;;3.00;2.70;;;15.10;72.50;;;;;;4230412;28;20225;-72
2022/03/07 05:00:33;;;;;;;2.73;2.30;;;15.10;72.50;;;;;;4230452;28;20217;-72
2022/03/07 05:02:35;;;;;;;2.73;2.27;;;15.10;72.30;;;;;;4229874;28;20221;-72
2022/03/07 05:04:38;;;;;;;2.60;2.33;;;15.10;73.40;;;;;;4230225;28;20262;-72
2022/03/07 05:06:42;;;;;;;2.97;2.20;;;15.10;72.40;;;;;;4224084;28;20275;-72
2022/03/07 05:08:44;;;;;;;3.00;2.43;;;15.00;72.40;;;;;;4224951;28;20708;-72
2022/03/07 05:10:47;;;;;;;2.83;2.30;;;15.10;72.60;;;;;;4229643;28;20286;-72
2022/03/07 05:12:49;;;;;;;2.90;2.60;;;15.00;72.30;;;;;;4230111;28;20231;-72
2022/03/07 05:14:51;;;;;;;3.73;2.40;;;15.10;72.50;;;;;;4229306;28;20226;-72
2022/03/07 05:16:54;;;;;;;2.73;2.27;;;15.00;72.30;;;;;;4229442;28;20242;-72
2022/03/07 05:18:56;;;;;;;3.30;2.27;;;15.00;72.40;;;;;;4229478;28;20222;-72
2022/03/07 05:20:59;;;;;;;3.30;2.40;;;15.00;72.40;;;;;;4229959;28;20719;-72
2022/03/07 05:23:03;;;;;;;3.67;2.43;;;15.00;72.40;;;;;;4229899;28;20230;-72
2022/03/07 05:25:07;;;;;;;2.80;2.30;;;15.00;72.40;;;;;;4229684;28;20217;-72
2022/03/07 05:27:10;;;;;;;2.93;2.13;;;15.00;72.40;;;;;;4229831;28;20733;-72
2022/03/07 05:29:12;;;;;;;3.13;2.40;;;15.00;72.40;;;;;;4229848;28;20283;-72
2022/03/07 05:31:15;;;;;;;3.30;2.13;;;15.00;72.30;;;;;;4229766;28;20213;-73
2022/03/07 05:33:17;;;;;;;3.17;2.40;;;15.00;72.40;;;;;;4229472;28;20286;-72
2022/03/07 05:35:21;;;;;;;2.80;2.50;;;15.00;72.20;;;;;;4229601;28;20222;-72
2022/03/07 05:37:24;;;;;;;2.63;2.30;;;15.00;72.20;;;;;;4230043;28;20241;-72
2022/03/07 05:39:27;;;;;;;2.70;2.30;;;15.00;72.30;;;;;;4229773;28;20226;-72
2022/03/07 05:41:30;;;;;;;3.60;2.40;;;15.00;72.30;;;;;;4229973;28;20266;-72
2022/03/07 05:43:32;;;;;;;2.60;2.20;;;15.00;72.30;;;;;;4229186;28;20221;-72
2022/03/07 05:45:34;;;;;;;2.53;2.27;;;15.00;72.30;;;;;;4229693;28;20621;-72
2022/03/07 05:47:38;;;;;;;3.17;2.60;;;15.00;72.40;;;;;;4229460;28;20665;-72
2022/03/07 05:49:40;;;;;;;3.10;2.37;;;15.00;72.20;;;;;;4229158;28;20287;-73
2022/03/07 05:51:44;;;;;;;3.30;2.40;;;15.00;72.20;;;;;;4229656;28;20226;-72
2022/03/07 05:53:46;;;;;;;3.33;2.50;;;15.00;72.70;;;;;;4229311;28;20577;-72
2022/03/07 05:55:50;;;;;;;2.93;2.40;;;14.90;73.00;;;;;;4229559;28;20263;-72
2022/03/07 05:57:59;;;;;;;3.30;2.50;;;14.90;73.20;;;;;;4229256;28;20213;-73
2022/03/07 06:00:02;;;;;;;3.80;2.90;;;14.90;72.60;;;;;;4229684;28;20225;-72
2022/03/07 06:02:04;;;;;;;4.30;3.00;;;14.90;72.70;;;;;;4229414;28;20263;-73
2022/03/07 06:04:08;;;;;;;3.17;2.30;;;15.00;73.10;;;;;;4228892;28;20718;-72
2022/03/07 06:06:10;;;;;;;3.40;2.73;;;15.00;73.00;;;;;;4229249;28;20221;-72
2022/03/07 06:08:13;;;;;;;2.60;2.30;;;15.00;72.70;;;;;;4227754;28;20267;-72
2022/03/07 06:10:15;;;;;;;2.50;2.30;;;15.10;72.80;;;;;;4229661;28;20267;-72
2022/03/07 06:12:19;;;;;;;2.87;2.57;;;15.00;72.40;;;;;;4229334;28;20631;-72
2022/03/07 06:14:21;;;;;;;2.53;2.30;;;15.10;72.30;;;;;;4222113;28;20540;-72
2022/03/07 06:16:24;;;;;;;3.10;2.50;;;15.10;71.90;;;;;;4218289;28;20279;-72
2022/03/07 06:18:26;;;;;;;3.00;2.60;;;15.10;71.90;;;;;;4232006;28;20218;-72
2022/03/07 06:20:28;;;;;;;3.00;2.30;;;15.20;72.10;;;;;;4232306;28;20218;-72
2022/03/07 06:22:31;;;;;;;3.80;2.87;;;15.20;71.90;;;;;;4232812;28;20226;-72
2022/03/07 06:24:33;;;;;;;2.80;2.50;;;15.20;71.90;;;;;;4232789;28;20635;-73
2022/03/07 06:26:36;;;;;;;3.40;2.50;;;15.20;71.60;;;;;;4232528;28;20233;-72
2022/03/07 06:28:40;;;;;;;3.97;2.60;;;15.30;71.80;;;;;;4232209;28;20613;-73
2022/03/07 06:30:42;;;;;;;3.23;2.67;;;15.30;71.70;;;;;;4232448;28;20241;-72
2022/03/07 06:32:45;;;;;;;3.27;2.60;;;15.30;71.90;;;;;;4232179;28;20614;-72
2022/03/07 06:34:47;;;;;;;3.83;2.67;;;15.30;71.60;;;;;;4218792;28;20218;-73
2022/03/07 06:36:50;;;;;;;3.20;2.77;;;15.30;71.70;;;;;;4232637;28;20298;-72
2022/03/07 06:38:52;;;;;;;3.23;2.77;;;15.30;71.60;;;;;;4232814;28;20214;-72
2022/03/07 06:40:55;;;;;;;2.73;2.10;;;15.30;71.50;;;;;;4232276;28;20214;-73
2022/03/07 06:43:00;;;;;;;4.73;2.70;;;15.40;71.50;;;;;;4232275;28;20221;-72
2022/03/07 06:45:05;;;;;;;2.80;2.50;;;15.40;71.80;;;;;;4232362;28;20274;-72
2022/03/07 06:47:07;;;;;;;3.10;2.80;;;15.40;71.60;;;;;;4232075;28;20218;-73
2022/03/07 06:49:10;;;;;;;3.47;2.63;;;15.40;71.70;;;;;;4232191;28;20217;-72
2022/03/07 06:51:12;;;;;;;3.40;2.60;;;15.40;71.50;;;;;;4232447;28;20307;-72
2022/03/07 06:53:14;;;;;;;3.90;2.70;;;15.40;71.30;;;;;;4232292;28;20230;-72
2022/03/07 06:55:16;;;;;;;3.90;2.20;;;15.40;71.20;;;;;;4223942;28;20206;-72
2022/03/07 06:57:19;;;;;;;3.43;2.60;;;15.40;71.50;;;;;;4229751;28;20222;-72
2022/03/07 06:59:22;;;;;;;3.33;3.03;;;15.50;71.80;;;;;;4231849;28;20251;-72
2022/03/07 07:01:25;;;;;;;3.23;2.67;;;15.50;71.40;;;;;;4232295;28;20226;-72
2022/03/07 07:03:28;;;;;;;3.90;2.73;;;15.50;71.60;;;;;;4232428;28;21063;-72
2022/03/07 07:05:30;;;;;;;3.57;2.87;;;15.50;71.20;;;;;;4232251;28;20214;-72
2022/03/07 07:07:33;;;;;;;2.97;2.67;;;15.50;71.20;;;;;;4231928;28;20229;-72
2022/03/07 07:09:36;;;;;;;2.73;2.50;;;15.50;71.30;;;;;;4231608;28;20278;-72
2022/03/07 07:11:39;;;;;;;3.10;2.50;;;15.50;72.10;;;;;;4232116;28;20678;-72
2022/03/07 07:13:41;;;;;;;3.40;2.80;;;15.60;71.40;;;;;;4231543;28;20597;-72
2022/03/07 07:15:44;;;;;;;3.53;2.60;;;15.50;71.30;;;;;;4226905;28;20223;-72
2022/03/07 07:17:47;;;;;;;3.53;2.60;;;15.60;71.30;;;;;;4224534;28;20237;-71
2022/03/07 07:19:50;;;;;;;2.77;2.50;;;15.60;71.80;;;;;;4231674;28;20222;-72
2022/03/07 07:21:52;;;;;;;4.00;2.90;;;15.50;73.10;;;;;;4218182;28;20226;-72
2022/03/07 07:23:55;;;;;;;2.67;2.10;;;15.50;72.90;;;;;;4231307;28;20226;-72
2022/03/07 07:25:57;;;;;;;5.37;2.77;;;15.50;73.20;;;;;;4230556;28;20225;-72
2022/03/07 07:27:59;;;;;;;3.57;2.60;;;15.50;72.90;;;;;;4231513;28;20247;-75
2022/03/07 07:30:02;;;;;;;9.60;3.10;;;15.50;73.20;;;;;;4223325;28;20213;-77
2022/03/07 07:32:05;;;;;;;6.50;2.40;;;15.60;73.10;;;;;;4232585;28;20222;-77
2022/03/07 07:34:09;;;;;;;4.93;2.70;;;15.70;74.30;;;;;;4231750;28;20271;-77
2022/03/07 07:36:11;;;;;;;4.13;2.37;;;15.70;74.90;;;;;;4231873;28;20222;-77
2022/03/07 07:38:14;;;;;;;5.67;2.57;;;15.70;73.20;;;;;;4232231;28;20621;-77
2022/03/07 07:40:16;;;;;;;8.87;2.40;;;15.80;73.70;;;;;;4232352;28;20222;-77
2022/03/07 07:42:19;;;;;;;5.00;2.63;;;15.80;73.10;;;;;;4218957;28;20271;-78
2022/03/07 07:44:21;;;;;;;3.90;2.87;;;15.80;72.90;;;;;;4231981;28;20217;-74
2022/03/07 07:46:23;;;;;;;3.67;2.60;;;15.90;73.40;;;;;;4231418;28;20221;-72
2022/03/07 07:48:26;;;;;;;11.57;3.43;;;15.90;76.60;;;;;;4217684;28;20248;-73
2022/03/07 07:50:30;;;;;;;7.67;3.03;;;15.80;77.20;;;;;;4226981;28;20278;-72
2022/03/07 07:52:33;;;;;;;9.10;3.17;;;15.80;78.60;;;;;;4220111;28;20209;-73
2022/03/07 07:54:35;;;;;;;13.23;3.50;;;15.90;81.70;;;;;;4219811;28;20218;-71
2022/03/07 07:56:37;;;;;;;11.07;3.50;;;15.80;83.50;;;;;;4212291;28;20209;-70
2022/03/07 07:58:40;;;;;;;9.67;4.37;;;16.10;83.00;;;;;;4223166;28;20209;-72
2022/03/07 08:00:42;;;;;;;8.57;4.03;;;16.20;83.70;;;;;;4226665;28;20206;-72
2022/03/07 08:02:45;;;;;;;9.47;5.13;;;16.30;81.40;;;;;;4222257;28;20280;-72
2022/03/07 08:04:47;;;;;;;13.55;5.32;;;16.40;80.80;;;;;;4225496;28;20259;-71
2022/03/07 08:06:51;;;;;;;6.57;4.55;;;16.50;77.00;;;;;;4222849;28;20654;-72
2022/03/07 08:08:53;;;;;;;10.57;4.57;;;16.70;76.70;;;;;;4220009;27;20215;-71
2022/03/07 08:10:56;;;;;;;7.53;3.42;;;16.80;77.70;;;;;;4224052;28;20237;-73
2022/03/07 08:12:59;;;;;;;12.63;5.22;;;17.00;77.20;;;;;;4214197;27;20221;-72
2022/03/07 08:15:01;;;;;;;12.17;3.87;;;17.20;75.20;;;;;;4223244;27;20213;-72
2022/03/07 08:17:05;;;;;;;10.65;4.10;;;17.20;76.50;;;;;;4224040;28;20294;-72
2022/03/07 08:19:07;;;;;;;7.63;3.42;;;17.20;77.40;;;;;;4218913;28;20271;-71
2022/03/07 08:21:10;;;;;;;7.68;3.28;;;17.30;76.80;;;;;;4220821;28;20205;-70
2022/03/07 08:23:13;;;;;;;7.75;3.30;;;17.30;77.80;;;;;;4219629;28;20278;-71
2022/03/07 08:25:16;;;;;;;6.22;3.20;;;17.40;77.20;;;;;;4223779;28;20226;-71
2022/03/07 08:27:19;;;;;;;4.90;2.83;;;17.60;77.10;;;;;;4222208;28;20209;-70
2022/03/07 08:29:21;;;;;;;5.00;2.60;;;17.60;76.80;;;;;;4214449;27;20288;-69
2022/03/07 08:31:24;;;;;;;7.03;2.65;;;17.70;76.80;;;;;;4213434;28;20241;-82
2022/03/07 08:33:31;;;;;;;6.43;3.25;;;17.60;76.30;;;;;;4208021;27;20239;-71
2022/03/07 08:35:33;;;;;;;4.40;2.80;;;17.60;76.70;;;;;;4221042;28;20274;-72
2022/03/07 08:37:35;;;;;;;4.78;3.08;;;17.60;77.00;;;;;;4221695;28;20270;-71
2022/03/07 08:39:39;;;;;;;4.65;2.60;;;17.50;77.20;;;;;;4219477;28;20209;-71
2022/03/07 08:41:41;;;;;;;7.10;2.65;;;17.60;77.90;;;;;;4218736;27;20263;-70
2022/03/07 08:43:45;;;;;;;5.85;2.50;;;17.50;78.10;;;;;;4222010;28;20221;-68
2022/03/07 08:45:48;;;;;;;5.57;2.50;;;17.60;78.70;;;;;;4223046;27;20608;-70
2022/03/07 08:47:50;;;;;;;10.45;3.20;;;17.60;78.90;;;;;;4220927;28;20655;-70
2022/03/07 08:49:53;;;;;;;4.55;2.83;;;17.60;78.50;;;;;;4221724;28;20635;-72
2022/03/07 08:51:55;;;;;;;4.95;3.08;;;17.60;78.20;;;;;;4217299;27;20226;-68
2022/03/07 08:53:57;;;;;;;5.85;2.45;;;17.60;78.50;;;;;;4222581;27;20564;-72
2022/03/07 08:56:01;;;;;;;5.65;2.58;;;17.60;78.30;;;;;;4222197;28;20649;-71
2022/03/07 08:58:03;;;;;;;6.10;2.75;;;17.60;78.40;;;;;;4223214;27;20267;-71
2022/03/07 09:00:09;;;;;;;6.93;2.47;;;17.70;78.90;;;;;;4223449;28;20214;-74
2022/03/07 09:02:12;;;;;;;4.47;2.38;;;17.70;78.50;;;;;;4220951;28;22089;-70
2022/03/07 09:04:14;;;;;;;3.83;2.78;;;17.70;78.50;;;;;;4224253;28;20275;-69
2022/03/07 09:06:17;;;;;;;3.97;2.50;;;17.80;78.40;;;;;;4223862;28;20222;-69
2022/03/07 09:08:19;;;;;;;5.15;2.40;;;17.70;78.60;;;;;;4215762;27;20290;-71
2022/03/07 09:10:21;;;;;;;4.82;2.38;;;17.80;78.60;;;;;;4222706;28;20254;-69
2022/03/07 09:12:27;;;;;;;4.97;2.60;;;17.80;79.10;;;;;;4216100;28;20229;-69
2022/03/07 09:14:30;;;;;;;4.55;2.08;;;17.80;78.60;;;;;;4219445;28;20259;-68
2022/03/07 09:16:32;;;;;;;6.05;2.30;;;17.90;78.70;;;;;;4223065;28;20233;-69
2022/03/07 09:18:35;;;;;;;3.17;2.45;;;17.90;78.30;;;;;;4221966;28;20255;-71
2022/03/07 09:20:37;;;;;;;6.05;2.25;;;17.90;78.70;;;;;;4216598;28;20218;-71
2022/03/07 09:22:40;;;;;;;4.57;2.42;;;17.90;78.70;;;;;;4219569;28;20235;-71
2022/03/07 09:24:42;;;;;;;4.72;2.70;;;17.90;78.70;;;;;;4221532;27;20222;-71
2022/03/07 09:26:44;;;;;;;11.02;2.40;;;18.00;79.70;;;;;;4223252;28;20255;-71
2022/03/07 09:28:48;;;;;;;7.70;2.60;;;18.00;81.80;;;;;;4216376;28;20222;-71
2022/03/07 09:30:51;;;;;;;3.70;2.08;;;18.00;78.80;;;;;;4219094;28;20270;-70
2022/03/07 09:32:56;;;;;;;10.23;2.47;;;18.10;79.00;;;;;;4222950;28;20241;-72
2022/03/07 09:34:58;;;;;;;7.15;2.00;;;18.20;78.70;;;;;;4222158;28;20239;-72
2022/03/07 09:37:02;;;;;;;3.00;1.85;;;18.20;79.40;;;;;;4216804;28;20255;-72
2022/03/07 09:39:05;;;;;;;5.05;2.38;;;18.20;80.20;;;;;;4219530;28;20660;-72
2022/03/07 09:41:08;;;;;;;3.28;1.83;;;18.20;80.50;;;;;;4219818;28;20286;-72
2022/03/07 09:43:10;;;;;;;5.10;2.08;;;18.30;80.60;;;;;;4218525;28;20214;-72
2022/03/07 09:45:14;;;;;;;10.38;2.42;;;18.30;80.40;;;;;;4221037;28;20274;-72
2022/03/07 09:47:16;;;;;;;3.00;2.13;;;18.30;80.10;;;;;;4222172;28;20235;-71
2022/03/07 09:49:20;;;;;;;3.25;2.20;;;18.40;80.00;;;;;;4215573;28;20294;-71
2022/03/07 09:51:22;;;;;;;4.20;2.00;;;18.40;80.30;;;;;;4219265;28;20267;-70
2022/03/07 09:53:24;;;;;;;5.70;2.38;;;18.30;78.30;;;;;;4219834;28;21002;-71
2022/03/07 09:55:27;;;;;;;7.82;2.53;;;18.40;78.30;;;;;;4219948;28;20222;-73
2022/03/07 09:57:29;;;;;;;5.70;2.25;;;18.40;77.30;;;;;;4222770;28;20214;-72
2022/03/07 09:59:34;;;;;;;4.78;1.98;;;18.40;77.80;;;;;;4218578;28;20709;-73
2022/03/07 10:01:38;;;;;;;18.77;2.70;;;18.40;78.50;;;;;;4216680;28;20279;-70
2022/03/07 10:03:40;;;;;;;11.48;2.15;;;18.40;77.80;;;;;;4215373;28;20259;-72
2022/03/07 10:05:44;;;;;;;8.35;2.00;;;18.30;78.20;;;;;;4227350;28;20657;-71
2022/03/07 10:07:48;;;;;;;5.95;2.53;;;18.40;78.10;;;;;;4217263;28;20609;-70
2022/03/07 10:09:50;;;;;;;6.72;2.10;;;18.50;79.40;;;;;;4221412;28;20266;-70
2022/03/07 10:11:53;;;;;;;7.63;2.17;;;18.60;79.60;;;;;;4223308;28;20347;-71
2022/03/07 10:14:00;;;;;;;4.38;1.85;;;18.70;79.50;;;;;;4221670;28;20210;-71
2022/03/07 10:16:05;;;;;;;6.15;2.08;;;18.70;80.10;;;;;;4215308;28;21950;-71
2022/03/07 10:18:17;;;;;;;2.22;1.80;;;18.70;79.90;;;;;;4218746;28;20248;-70
2022/03/07 10:20:21;;;;;;;8.60;2.03;;;18.70;81.30;;;;;;4222019;28;20214;-70
2022/03/07 10:22:26;;;;;;;5.68;2.10;;;18.80;80.30;;;;;;4221078;28;20214;-71
2022/03/07 10:24:37;;;;;;;5.75;1.88;;;18.80;80.90;;;;;;4220426;28;20223;-72
2022/03/07 10:26:39;;;;;;;5.85;2.45;;;18.80;80.50;;;;;;4214541;28;20214;-72
2022/03/07 10:28:42;;;;;;;3.95;2.10;;;18.80;80.40;;;;;;4221646;28;20600;-70
2022/03/07 10:30:45;;;;;;;4.78;1.80;;;18.80;81.40;;;;;;4214816;28;20256;-71
2022/03/07 10:32:54;;;;;;;5.22;2.20;;;18.80;80.80;;;;;;4222927;28;20241;-72
2022/03/07 10:34:58;;;;;;;7.55;2.15;;;18.80;81.30;;;;;;4220373;28;20711;-71
2022/03/07 10:37:00;;;;;;;4.05;2.10;;;18.80;80.40;;;;;;4218231;28;20226;-72
2022/03/07 10:39:05;;;;;;;6.15;1.83;;;18.90;81.00;;;;;;4219846;28;20306;-72